Time;durP1;ratioP1;P1;durP2;ratioP2;P2;SDS_P1;SDS_P2;PMS_P1;PMS_P2;Temp;Humidity;BMP_temperature;BMP_pressure;BME280_temperature;BME280_humidity;BME280_pressure;Samples;Min_cycle;Max_cycle;Signal;HPM_P1;HPM_P2
2021/04/23 00:00:14;;;;;;;23.95;11.55;;;5.30;99.90;;;;;;5011604;28;20497;-73
2021/04/23 00:02:40;;;;;;;20.00;12.30;;;5.20;99.90;;;;;;5011338;28;20026;-73
2021/04/23 00:05:06;;;;;;;21.58;12.60;;;5.20;99.90;;;;;;5011398;28;20022;-73
2021/04/23 00:07:32;;;;;;;22.50;13.57;;;5.20;99.90;;;;;;5011149;28;20022;-73
2021/04/23 00:09:58;;;;;;;25.08;15.07;;;5.30;99.90;;;;;;5010095;28;20539;-73
2021/04/23 00:12:23;;;;;;;23.23;15.48;;;5.40;99.90;;;;;;5011354;28;20092;-73
2021/04/23 00:14:52;;;;;;;25.58;14.77;;;5.40;99.90;;;;;;5009997;28;20037;-73
2021/04/23 00:17:19;;;;;;;26.02;16.02;;;5.50;99.90;;;;;;5011170;28;20029;-73
2021/04/23 00:19:45;;;;;;;30.10;16.63;;;5.70;99.90;;;;;;5011194;28;20030;-73
2021/04/23 00:22:12;;;;;;;24.95;15.40;;;5.90;99.90;;;;;;5009770;28;20037;-73
2021/04/23 00:24:39;;;;;;;27.05;16.52;;;5.80;99.90;;;;;;5009785;28;20378;-73
2021/04/23 00:27:06;;;;;;;24.40;15.25;;;5.80;99.90;;;;;;5011074;28;20074;-73
2021/04/23 00:29:35;;;;;;;23.70;14.45;;;5.70;99.90;;;;;;5009786;28;20029;-73
2021/04/23 00:34:46;;;;;;;25.13;15.10;;;5.50;99.90;;;;;;5011071;28;20378;-73
2021/04/23 00:37:12;;;;;;;25.90;16.98;;;5.40;99.90;;;;;;5010896;28;20026;-73
2021/04/23 00:39:38;;;;;;;26.13;16.50;;;5.20;99.90;;;;;;5010919;28;20026;-73
2021/04/23 00:42:06;;;;;;;26.60;16.33;;;5.10;99.90;;;;;;5011031;28;20034;-73
2021/04/23 00:44:32;;;;;;;27.30;16.52;;;5.00;99.90;;;;;;5009534;28;20030;-73
2021/04/23 00:46:59;;;;;;;24.13;15.60;;;5.10;99.90;;;;;;5011789;28;20030;-73
2021/04/23 00:49:25;;;;;;;24.63;15.40;;;5.20;99.90;;;;;;4994890;28;571826;-73
2021/04/23 00:51:56;;;;;;;21.15;13.98;;;5.30;99.90;;;;;;5015537;28;20033;-73
2021/04/23 00:54:24;;;;;;;24.92;15.43;;;5.40;99.90;;;;;;5015446;28;20363;-73
2021/04/23 00:56:50;;;;;;;28.10;14.90;;;5.20;99.90;;;;;;5015250;28;20029;-73
2021/04/23 00:59:16;;;;;;;27.15;15.02;;;5.30;99.90;;;;;;5015414;28;20077;-73
2021/04/23 01:01:51;;;;;;;20.30;14.60;;;5.30;99.90;;;;;;5015374;28;20108;-73
2021/04/23 01:04:19;;;;;;;22.13;13.60;;;5.10;99.90;;;;;;5015283;28;20105;-73
2021/04/23 01:06:45;;;;;;;30.33;14.20;;;5.10;99.90;;;;;;5015093;28;20389;-73
2021/04/23 01:09:17;;;;;;;23.92;14.25;;;5.10;99.90;;;;;;5013873;28;20022;-73
2021/04/23 01:11:43;;;;;;;;;;;5.20;99.90;;;;;;5015555;28;20025;-73
2021/04/23 01:14:10;;;;;;;24.63;13.45;;;5.20;99.90;;;;;;5015194;28;19996;-73
2021/04/23 01:16:36;;;;;;;22.90;13.30;;;5.20;99.90;;;;;;5013777;28;20555;-73
2021/04/23 01:19:02;;;;;;;25.33;13.05;;;5.30;99.90;;;;;;5013898;28;20058;-73
2021/04/23 01:21:32;;;;;;;25.15;14.13;;;5.30;99.90;;;;;;5014953;28;20018;-73
2021/04/23 01:24:00;;;;;;;26.23;13.60;;;5.00;99.90;;;;;;5014761;28;20041;-73
2021/04/23 01:26:32;;;;;;;21.60;13.70;;;5.10;99.90;;;;;;5015037;28;20018;-73
2021/04/23 01:28:59;;;;;;;24.33;13.52;;;5.20;99.90;;;;;;5014861;28;20068;-73
2021/04/23 01:31:28;;;;;;;21.92;12.70;;;5.20;99.90;;;;;;5014843;28;20493;-73
2021/04/23 01:34:05;;;;;;;29.08;13.77;;;5.10;99.90;;;;;;5014741;28;20025;-73
2021/04/23 01:36:31;;;;;;;22.05;13.00;;;4.90;99.90;;;;;;5014487;28;20104;-73
2021/04/23 01:38:57;;;;;;;21.30;12.85;;;4.80;99.90;;;;;;5014583;28;20071;-73
2021/04/23 01:41:24;;;;;;;25.30;14.73;;;4.90;99.90;;;;;;5014635;28;20076;-73
2021/04/23 01:43:51;;;;;;;20.05;13.20;;;5.10;99.90;;;;;;5013195;28;20026;-72
2021/04/23 01:46:17;;;;;;;20.23;12.65;;;5.30;99.90;;;;;;5014375;28;20025;-73
2021/04/23 01:48:43;;;;;;;21.55;12.85;;;5.30;99.90;;;;;;5014154;28;20030;-72
2021/04/23 01:51:12;;;;;;;23.23;13.32;;;5.10;99.90;;;;;;5014464;28;20095;-73
2021/04/23 01:53:39;;;;;;;31.40;13.75;;;4.80;99.90;;;;;;5014282;28;20030;-73
2021/04/23 01:56:05;;;;;;;23.75;13.38;;;4.80;99.90;;;;;;5012893;28;20034;-73
2021/04/23 01:58:34;;;;;;;26.35;11.48;;;4.80;99.90;;;;;;5011995;28;20076;-73
2021/04/23 02:01:00;;;;;;;19.73;12.60;;;4.90;99.90;;;;;;5014195;28;20038;-73
2021/04/23 02:03:26;;;;;;;20.10;12.05;;;5.00;99.90;;;;;;5012733;28;20064;-73
2021/04/23 02:05:54;;;;;;;21.83;13.35;;;5.10;99.90;;;;;;5014030;28;20053;-73
2021/04/23 02:08:23;;;;;;;23.10;12.27;;;5.00;99.90;;;;;;5014066;28;20026;-73
2021/04/23 02:11:02;;;;;;;28.77;13.43;;;5.20;99.90;;;;;;5013984;28;20501;-73
2021/04/23 02:13:29;;;;;;;20.77;12.23;;;5.30;99.90;;;;;;5014097;28;20461;-73
2021/04/23 02:15:56;;;;;;;20.05;12.30;;;5.40;99.90;;;;;;5012647;28;20053;-73
2021/04/23 02:18:24;;;;;;;23.13;13.13;;;5.50;99.90;;;;;;5013968;28;20037;-73
2021/04/23 02:20:50;;;;;;;20.92;12.60;;;5.50;99.90;;;;;;5014092;28;20077;-73
2021/04/23 02:23:19;;;;;;;18.13;12.05;;;5.40;99.80;;;;;;5013716;28;20033;-73
2021/04/23 02:25:46;;;;;;;37.17;14.98;;;5.40;99.90;;;;;;5013599;28;20022;-73
2021/04/23 02:28:12;;;;;;;23.67;14.45;;;5.10;99.90;;;;;;5013709;28;20026;-73
2021/04/23 02:30:44;;;;;;;24.92;15.90;;;4.80;99.90;;;;;;5013717;28;20026;-73
2021/04/23 02:33:16;;;;;;;22.77;12.95;;;4.40;99.90;;;;;;5013665;28;20025;-73
2021/04/23 02:35:42;;;;;;;20.92;12.15;;;4.30;99.90;;;;;;5013377;28;20029;-73
2021/04/23 02:38:08;;;;;;;20.33;14.32;;;4.20;99.90;;;;;;5013585;28;20401;-73
2021/04/23 02:40:35;;;;;;;19.23;11.25;;;4.10;99.90;;;;;;5013497;28;20030;-73
2021/04/23 02:43:09;;;;;;;19.90;11.60;;;4.20;99.90;;;;;;5011969;28;20022;-73
2021/04/23 02:45:36;;;;;;;18.52;11.00;;;4.10;99.90;;;;;;5013468;28;20037;-73
2021/04/23 02:48:04;;;;;;;18.55;12.25;;;4.10;99.90;;;;;;5013397;28;20382;-73
2021/04/23 02:50:31;;;;;;;20.10;10.75;;;4.10;99.90;;;;;;5013183;28;20101;-73
2021/04/23 02:52:57;;;;;;;20.88;11.18;;;4.10;99.90;;;;;;5013180;28;20096;-73
2021/04/23 02:55:24;;;;;;;18.38;10.95;;;4.10;99.90;;;;;;5013207;28;20038;-73
2021/04/23 02:57:56;;;;;;;15.95;10.18;;;4.00;99.90;;;;;;5011879;28;20025;-73
2021/04/23 03:00:24;;;;;;;19.00;10.52;;;4.00;99.90;;;;;;5013258;28;20022;-73
2021/04/23 03:02:50;;;;;;;20.95;11.20;;;4.00;99.90;;;;;;5013028;28;20462;-73
2021/04/23 03:05:17;;;;;;;22.05;11.70;;;4.00;99.90;;;;;;5013017;28;20055;-73
2021/04/23 03:07:43;;;;;;;26.27;10.38;;;4.00;99.90;;;;;;5012847;28;20064;-73
2021/04/23 03:10:11;;;;;;;17.92;10.75;;;4.20;99.90;;;;;;5011506;28;20030;-73
2021/04/23 03:12:37;;;;;;;20.27;11.77;;;4.30;99.90;;;;;;5011875;28;20030;-73
2021/04/23 03:15:07;;;;;;;19.35;11.25;;;4.00;99.90;;;;;;5013020;28;20430;-73
2021/04/23 03:17:33;;;;;;;21.65;11.48;;;3.80;99.90;;;;;;5011579;28;20057;-73
2021/04/23 03:19:59;;;;;;;16.92;10.63;;;3.90;99.90;;;;;;5012786;28;20022;-73
2021/04/23 03:22:25;;;;;;;24.60;11.73;;;4.10;99.90;;;;;;5012738;28;20382;-73
2021/04/23 03:24:50;;;;;;;17.42;11.13;;;4.20;99.90;;;;;;5011463;28;20048;-73
2021/04/23 03:27:16;;;;;;;26.08;11.75;;;4.00;99.90;;;;;;5012528;28;20032;-73
2021/04/23 03:29:43;;;;;;;21.95;11.38;;;3.80;99.90;;;;;;5012619;28;20033;-72
2021/04/23 03:32:08;;;;;;;20.92;11.40;;;3.80;99.90;;;;;;5011278;28;20018;-73
2021/04/23 03:34:34;;;;;;;22.23;12.02;;;4.00;99.90;;;;;;5012557;28;20076;-73
2021/04/23 03:37:01;;;;;;;24.77;11.38;;;4.00;99.90;;;;;;5011151;28;20029;-73
2021/04/23 03:39:26;;;;;;;20.15;10.35;;;4.00;99.90;;;;;;5012552;28;20161;-73
2021/04/23 03:41:52;;;;;;;23.30;10.65;;;3.90;99.90;;;;;;5011221;28;20496;-73
2021/04/23 03:44:18;;;;;;;22.92;10.55;;;4.00;99.90;;;;;;5012528;28;20087;-73
2021/04/23 03:46:43;;;;;;;18.27;9.77;;;4.00;99.90;;;;;;5012278;28;20077;-73
2021/04/23 03:49:09;;;;;;;16.23;9.65;;;4.00;99.90;;;;;;5012180;28;20152;-73
2021/04/23 03:51:35;;;;;;;19.02;11.02;;;3.90;99.90;;;;;;5012371;28;20022;-73
2021/04/23 03:54:01;;;;;;;19.05;11.07;;;3.80;99.90;;;;;;5011113;28;20029;-73
2021/04/23 03:56:26;;;;;;;24.63;10.85;;;3.80;99.90;;;;;;5012130;28;20030;-73
2021/04/23 03:58:53;;;;;;;22.05;11.13;;;3.80;99.90;;;;;;5012240;28;20068;-73
2021/04/23 04:01:23;;;;;;;23.08;12.32;;;3.90;99.90;;;;;;5010887;28;20032;-73
2021/04/23 04:03:52;;;;;;;22.35;10.05;;;3.90;99.90;;;;;;5010849;28;20371;-73
2021/04/23 04:06:18;;;;;;;24.08;11.35;;;3.60;99.90;;;;;;5011973;28;20072;-73
2021/04/23 04:08:44;;;;;;;23.17;11.38;;;3.50;99.90;;;;;;5012160;28;20068;-73
2021/04/23 04:11:10;;;;;;;20.48;11.27;;;3.60;99.90;;;;;;5012064;28;20022;-73
2021/04/23 04:13:36;;;;;;;26.73;12.75;;;3.70;99.90;;;;;;5012061;28;20026;-73
2021/04/23 04:16:03;;;;;;;18.30;10.52;;;3.80;99.90;;;;;;5011848;28;20026;-73
2021/04/23 04:18:30;;;;;;;21.15;10.43;;;3.80;99.90;;;;;;5012089;28;20033;-73
2021/04/23 04:20:56;;;;;;;23.20;10.73;;;3.80;99.90;;;;;;5011956;28;20022;-73
2021/04/23 04:23:22;;;;;;;22.38;10.43;;;3.80;99.90;;;;;;5015172;28;20030;-73
2021/04/23 04:25:58;;;;;;;27.55;9.98;;;3.80;99.90;;;;;;5015822;28;20037;-73
2021/04/23 04:28:28;;;;;;;20.77;9.38;;;3.90;99.90;;;;;;5015883;28;20482;-73
2021/04/23 04:30:54;;;;;;;26.23;10.88;;;4.00;99.90;;;;;;5014561;28;20105;-73
2021/04/23 04:33:20;;;;;;;21.70;9.52;;;4.10;99.90;;;;;;5015807;28;20033;-73
2021/04/23 04:35:46;;;;;;;18.50;9.80;;;4.10;99.90;;;;;;5015585;28;20390;-73
2021/04/23 04:38:13;;;;;;;22.90;10.13;;;4.00;99.90;;;;;;5015630;28;20022;-73
2021/04/23 04:40:41;;;;;;;21.73;8.88;;;3.90;99.90;;;;;;5015681;28;20389;-73
2021/04/23 04:43:08;;;;;;;18.75;9.32;;;3.90;99.90;;;;;;5015576;28;20413;-73
2021/04/23 04:45:35;;;;;;;15.35;9.18;;;3.80;99.90;;;;;;5015625;28;20041;-73
2021/04/23 04:48:02;;;;;;;19.80;9.60;;;3.70;99.90;;;;;;5014410;28;20053;-73
2021/04/23 04:50:38;;;;;;;28.42;9.80;;;3.70;99.90;;;;;;5015329;28;20045;-73
2021/04/23 04:53:06;;;;;;;23.52;10.05;;;3.90;99.90;;;;;;5030647;28;20510;-73
2021/04/23 04:55:38;;;;;;;22.73;9.95;;;4.00;99.90;;;;;;5015423;28;20029;-73
2021/04/23 04:58:05;;;;;;;21.25;10.10;;;3.90;99.90;;;;;;5015437;28;20048;-73
2021/04/23 05:00:32;;;;;;;18.60;9.65;;;4.20;99.90;;;;;;5015343;28;20105;-73
2021/04/23 05:02:58;;;;;;;18.63;9.70;;;4.20;99.90;;;;;;5014032;28;20037;-73
2021/04/23 05:05:25;;;;;;;24.88;9.52;;;4.30;99.90;;;;;;5015165;28;20049;-73
2021/04/23 05:07:51;;;;;;;23.15;10.40;;;4.20;99.90;;;;;;5015183;28;20088;-73
2021/04/23 05:10:17;;;;;;;21.02;9.98;;;4.30;99.90;;;;;;5015191;28;20036;-73
2021/04/23 05:12:43;;;;;;;18.10;9.98;;;4.30;99.90;;;;;;5015130;28;20026;-73
2021/04/23 05:15:10;;;;;;;39.92;10.88;;;4.30;99.90;;;;;;5015413;28;20061;-73
2021/04/23 05:17:36;;;;;;;28.25;11.43;;;4.40;99.90;;;;;;5014953;28;20026;-73
2021/04/23 05:20:05;;;;;;;29.55;11.27;;;4.20;99.90;;;;;;5014717;28;20022;-73
2021/04/23 05:22:33;;;;;;;21.15;11.00;;;4.40;99.90;;;;;;5014857;28;20491;-73
2021/04/23 05:24:59;;;;;;;27.70;11.95;;;4.50;99.90;;;;;;5014774;28;20029;-73
2021/04/23 05:27:24;;;;;;;23.27;11.20;;;4.70;99.90;;;;;;4996989;28;20049;-73
2021/04/23 05:29:50;;;;;;;26.45;11.02;;;4.70;99.90;;;;;;5013499;28;20026;-72
2021/04/23 05:32:16;;;;;;;24.15;11.48;;;4.70;99.90;;;;;;4997166;28;20022;-73
2021/04/23 05:34:41;;;;;;;30.15;12.40;;;4.80;99.90;;;;;;5013270;28;20560;-73
2021/04/23 05:37:09;;;;;;;26.75;13.05;;;5.00;99.90;;;;;;5014460;28;20042;-73
2021/04/23 05:39:37;;;;;;;24.98;13.80;;;5.00;99.90;;;;;;5014584;28;20026;-73
2021/04/23 05:42:03;;;;;;;25.58;14.07;;;4.90;99.90;;;;;;5013298;28;20030;-73
2021/04/23 05:44:29;;;;;;;21.92;12.95;;;4.80;99.90;;;;;;5011626;28;20482;-73
2021/04/23 05:46:55;;;;;;;27.80;14.75;;;4.70;99.90;;;;;;5009662;28;20073;-73
2021/04/23 05:49:20;;;;;;;23.55;12.68;;;4.80;99.90;;;;;;5002624;28;20131;-73
2021/04/23 05:51:46;;;;;;;28.17;14.00;;;4.80;99.90;;;;;;4994771;28;20023;-73
2021/04/23 05:54:12;;;;;;;35.75;15.40;;;5.00;99.90;;;;;;5011242;28;20429;-73
2021/04/23 05:56:38;;;;;;;22.27;13.10;;;5.20;99.90;;;;;;5014432;28;20059;-73
2021/04/23 05:59:04;;;;;;;24.73;13.38;;;5.30;99.90;;;;;;5013744;28;20032;-73
2021/04/23 06:01:30;;;;;;;25.80;13.30;;;5.40;99.90;;;;;;5007703;28;20105;-73
2021/04/23 06:03:56;;;;;;;31.05;14.10;;;5.60;99.90;;;;;;4994565;28;20426;-73
2021/04/23 06:06:22;;;;;;;29.90;14.20;;;5.90;99.90;;;;;;4994286;28;20036;-73
2021/04/23 06:08:47;;;;;;;26.33;14.88;;;5.90;99.90;;;;;;4994393;28;20033;-73
2021/04/23 06:11:16;;;;;;;34.35;15.32;;;6.10;99.90;;;;;;4993301;28;20038;-73
2021/04/23 06:13:44;;;;;;;24.85;13.85;;;6.20;99.90;;;;;;4994352;28;20475;-73
2021/04/23 06:16:09;;;;;;;30.77;14.15;;;6.20;99.90;;;;;;4976682;28;20513;-73
2021/04/23 06:18:37;;;;;;;27.65;14.43;;;6.30;99.90;;;;;;4993292;28;20026;-73
2021/04/23 06:21:03;;;;;;;28.95;14.77;;;6.50;99.90;;;;;;4992880;28;20052;-73
2021/04/23 06:23:34;;;;;;;31.70;15.32;;;6.40;99.90;;;;;;4993930;28;20077;-73
2021/04/23 06:26:00;;;;;;;25.50;14.85;;;6.40;99.90;;;;;;4992813;28;20022;-73
2021/04/23 06:28:26;;;;;;;24.75;15.05;;;6.40;99.90;;;;;;5009167;28;20107;-73
2021/04/23 06:30:53;;;;;;;32.15;15.30;;;6.50;99.90;;;;;;4992738;28;20033;-73
2021/04/23 06:33:20;;;;;;;33.08;15.40;;;6.50;99.90;;;;;;4993981;28;20053;-73
2021/04/23 06:35:47;;;;;;;25.60;13.75;;;6.40;99.90;;;;;;5001022;28;20014;-73
2021/04/23 06:38:13;;;;;;;24.50;15.25;;;6.50;99.90;;;;;;5001317;28;20395;-73
2021/04/23 06:40:39;;;;;;;25.83;14.85;;;6.80;99.90;;;;;;5006754;28;20030;-73
2021/04/23 06:43:05;;;;;;;25.40;15.52;;;6.90;99.90;;;;;;5023046;28;20389;-72
2021/04/23 06:45:31;;;;;;;31.25;16.10;;;7.10;99.90;;;;;;5019805;28;20108;-73
2021/04/23 06:47:58;;;;;;;25.92;15.65;;;7.20;99.90;;;;;;5012273;28;20022;-73
2021/04/23 06:50:24;;;;;;;29.73;15.40;;;7.30;99.90;;;;;;5009686;28;20040;-73
2021/04/23 06:52:53;;;;;;;23.05;14.43;;;7.50;99.90;;;;;;5014161;28;20414;-74
2021/04/23 06:55:20;;;;;;;24.55;14.43;;;7.70;99.90;;;;;;5019217;28;20021;-73
2021/04/23 06:57:46;;;;;;;30.55;13.95;;;7.80;99.90;;;;;;5022046;28;20144;-73
2021/04/23 07:00:19;;;;;;;23.30;13.18;;;8.00;99.90;;;;;;5013296;28;20132;-71
2021/04/23 07:02:44;;;;;;;24.10;13.18;;;8.00;97.80;;;;;;5016882;28;20033;-71
2021/04/23 07:05:11;;;;;;;24.05;12.25;;;8.20;95.80;;;;;;5025757;28;20030;-71
2021/04/23 07:07:39;;;;;;;14.45;10.13;;;8.30;94.00;;;;;;5003741;28;20235;-71
2021/04/23 07:10:08;;;;;;;23.55;12.18;;;8.40;93.40;;;;;;5018955;28;20026;-71
2021/04/23 07:12:34;;;;;;;24.70;11.95;;;8.50;91.80;;;;;;5025608;28;20021;-72
2021/04/23 07:15:00;;;;;;;24.88;12.77;;;8.50;90.00;;;;;;5026334;28;20511;-70
2021/04/23 07:17:26;;;;;;;20.70;11.32;;;8.60;90.00;;;;;;5016441;28;20489;-71
2021/04/23 07:19:51;;;;;;;21.40;12.05;;;8.70;88.80;;;;;;5017685;28;20057;-71
2021/04/23 07:22:17;;;;;;;15.63;9.00;;;8.90;86.80;;;;;;5008623;28;20351;-71
2021/04/23 07:24:44;;;;;;;19.73;10.43;;;9.00;83.50;;;;;;5022549;28;20041;-72
2021/04/23 07:27:11;;;;;;;23.02;11.13;;;9.30;81.00;;;;;;5017029;28;20500;-71
2021/04/23 07:29:37;;;;;;;17.85;10.52;;;9.60;80.70;;;;;;5016371;28;20022;-71
2021/04/23 07:32:04;;;;;;;23.38;11.65;;;9.80;79.20;;;;;;5025078;28;20088;-71
2021/04/23 07:34:30;;;;;;;15.95;9.20;;;9.80;76.00;;;;;;5020477;28;20026;-72
2021/04/23 07:36:56;;;;;;;20.55;9.70;;;9.90;73.30;;;;;;5021981;28;20447;-71
2021/04/23 07:39:26;;;;;;;21.48;8.18;;;10.10;72.40;;;;;;5020060;28;20021;-71
2021/04/23 07:41:53;;;;;;;16.30;8.18;;;10.30;70.50;;;;;;5016478;28;20026;-72
2021/04/23 07:44:20;;;;;;;29.48;8.85;;;10.40;68.50;;;;;;5022762;28;20477;-72
2021/04/23 07:46:47;;;;;;;28.40;14.98;;;10.50;68.90;;;;;;5002799;28;20112;-72
2021/04/23 07:49:12;;;;;;;21.95;7.70;;;10.70;70.10;;;;;;5022724;28;20029;-73
2021/04/23 07:51:38;;;;;;;16.67;7.95;;;10.80;64.50;;;;;;5018094;28;20101;-72
2021/04/23 07:54:05;;;;;;;17.17;8.50;;;10.80;65.50;;;;;;5021236;28;20482;-72
2021/04/23 07:56:30;;;;;;;17.08;7.68;;;10.80;65.80;;;;;;5020387;28;20030;-72
2021/04/23 07:58:56;;;;;;;27.55;7.45;;;11.20;63.40;;;;;;5024579;28;20051;-73
2021/04/23 08:01:22;;;;;;;18.58;7.45;;;11.40;61.30;;;;;;5018314;28;20095;-72
2021/04/23 08:03:48;;;;;;;19.23;7.65;;;11.40;58.80;;;;;;5018190;28;20037;-72
2021/04/23 08:06:13;;;;;;;16.90;6.43;;;11.60;57.80;;;;;;5024050;28;20025;-72
2021/04/23 08:08:39;;;;;;;18.17;6.88;;;11.70;53.40;;;;;;5019538;28;20393;-72
2021/04/23 08:11:05;;;;;;;13.75;6.40;;;11.90;53.10;;;;;;5020557;28;20074;-72
2021/04/23 08:13:30;;;;;;;16.30;6.60;;;11.80;54.60;;;;;;5018763;28;20036;-71
2021/04/23 08:15:56;;;;;;;20.98;8.10;;;12.00;54.70;;;;;;5015302;28;20033;-71
2021/04/23 08:18:23;;;;;;;15.15;5.90;;;12.00;52.60;;;;;;5017222;28;20486;-72
2021/04/23 08:20:49;;;;;;;10.85;5.97;;;12.10;52.90;;;;;;5010521;28;20390;-71
2021/04/23 08:23:15;;;;;;;20.77;6.35;;;12.40;52.90;;;;;;5024346;28;20026;-72
2021/04/23 08:25:41;;;;;;;14.60;6.85;;;12.40;53.30;;;;;;5019524;28;20026;-72
2021/04/23 08:28:06;;;;;;;17.42;6.72;;;12.60;52.00;;;;;;5018240;28;20044;-73
2021/04/23 08:30:32;;;;;;;13.88;5.43;;;12.80;49.20;;;;;;5019635;28;20033;-72
2021/04/23 08:32:58;;;;;;;15.50;5.70;;;12.90;49.60;;;;;;5021863;28;20033;-72
2021/04/23 08:35:25;;;;;;;15.55;5.15;;;13.00;48.90;;;;;;5020441;28;20035;-73
2021/04/23 08:37:51;;;;;;;15.23;5.60;;;13.10;46.00;;;;;;5025668;28;20052;-73
2021/04/23 08:40:20;;;;;;;14.23;4.57;;;13.20;47.10;;;;;;5016092;28;20033;-72
2021/04/23 08:42:45;;;;;;;11.60;5.07;;;13.60;46.60;;;;;;5020726;28;20022;-72
2021/04/23 08:45:18;;;;;;;19.05;5.07;;;13.60;44.70;;;;;;5023131;28;20025;-73
2021/04/23 08:47:44;;;;;;;14.27;4.72;;;13.80;44.00;;;;;;5028082;28;20079;-73
2021/04/23 08:50:11;;;;;;;14.60;4.43;;;13.90;43.50;;;;;;5003075;28;20033;-72
2021/04/23 08:52:41;;;;;;;14.07;4.45;;;14.00;43.90;;;;;;5024544;28;20021;-72
2021/04/23 08:55:08;;;;;;;11.32;4.70;;;14.20;42.20;;;;;;5018145;28;20113;-73
2021/04/23 08:57:34;;;;;;;15.57;4.38;;;14.30;42.20;;;;;;5020672;28;20025;-71
2021/04/23 08:59:59;;;;;;;10.00;4.57;;;14.20;42.20;;;;;;5023836;28;20026;-73
2021/04/23 09:02:25;;;;;;;11.55;5.07;;;14.40;44.00;;;;;;5021035;28;20030;-73
2021/04/23 09:04:51;;;;;;;14.32;4.65;;;14.60;42.70;;;;;;5020220;28;20039;-73
2021/04/23 09:07:17;;;;;;;9.82;4.07;;;14.50;40.90;;;;;;5018880;28;20053;-73
2021/04/23 09:09:44;;;;;;;15.98;4.63;;;14.20;41.60;;;;;;5025734;28;20030;-73
2021/04/23 09:12:30;;;;;;;21.60;5.30;;;14.30;41.40;;;;;;5024424;28;20075;-73
2021/04/23 09:14:56;;;;;;;19.85;5.57;;;14.80;42.00;;;;;;5015216;28;20049;-73
2021/04/23 09:17:24;;;;;;;18.35;5.40;;;15.30;42.80;;;;;;5026117;28;20108;-73
2021/04/23 09:19:52;;;;;;;9.95;3.97;;;15.70;42.80;;;;;;5026660;28;20420;-73
2021/04/23 09:22:17;;;;;;;12.93;4.35;;;15.50;39.40;;;;;;5028637;28;20025;-72
2021/04/23 09:24:45;;;;;;;14.32;4.40;;;15.20;40.40;;;;;;5013450;28;20033;-72
2021/04/23 09:27:33;;;;;;;13.75;4.10;;;15.70;40.40;;;;;;5024802;28;20017;-73
2021/04/23 09:30:10;;;;;;;10.85;3.97;;;16.00;40.10;;;;;;5018800;28;20022;-73
2021/04/23 09:32:41;;;;;;;10.85;4.32;;;16.40;38.40;;;;;;5025307;28;20017;-73
2021/04/23 09:35:19;;;;;;;9.15;4.78;;;16.50;38.30;;;;;;5028584;28;20021;-73
2021/04/23 09:37:52;;;;;;;10.20;4.43;;;16.40;37.90;;;;;;5018396;28;20029;-73
2021/04/23 09:40:28;;;;;;;14.05;4.95;;;16.80;37.90;;;;;;5017642;28;20040;-73
2021/04/23 09:42:59;;;;;;;9.63;5.00;;;16.60;36.80;;;;;;5023329;28;20026;-73
2021/04/23 09:45:28;;;;;;;17.42;4.32;;;16.90;38.80;;;;;;5015352;28;20030;-73
2021/04/23 09:47:55;;;;;;;11.63;4.00;;;17.30;34.90;;;;;;5014626;28;20417;-72
2021/04/23 09:50:27;;;;;;;11.48;4.30;;;17.50;35.00;;;;;;5022419;28;20079;-73
2021/04/23 09:52:54;;;;;;;;;;;17.60;35.20;;;;;;5010845;28;20104;-73
2021/04/23 09:55:27;;;;;;;10.13;4.22;;;18.30;36.00;;;;;;5024875;28;19920;-71
2021/04/23 09:58:06;;;;;;;12.07;3.92;;;18.70;34.40;;;;;;5017877;28;20041;-75
2021/04/23 10:00:35;;;;;;;9.63;3.67;;;18.50;33.40;;;;;;5023251;28;20045;-73
2021/04/23 10:03:03;;;;;;;9.90;4.82;;;18.60;35.00;;;;;;5026080;28;20052;-73
2021/04/23 10:05:35;;;;;;;13.65;4.25;;;18.50;34.20;;;;;;5023779;28;20075;-73
2021/04/23 10:08:01;;;;;;;;;;;18.70;35.50;;;;;;5015614;28;20029;-72
2021/04/23 10:10:28;;;;;;;12.70;4.72;;;18.50;33.90;;;;;;5042647;28;19909;-73
2021/04/23 10:13:05;;;;;;;14.00;4.50;;;18.30;33.90;;;;;;5027718;28;20450;-73
2021/04/23 10:15:41;;;;;;;11.02;4.15;;;18.00;35.60;;;;;;5027201;28;20105;-72
2021/04/23 10:18:12;;;;;;;9.20;4.53;;;18.60;36.70;;;;;;5022862;28;20381;-73
2021/04/23 10:20:43;;;;;;;19.93;6.17;;;19.00;34.80;;;;;;5022715;28;20433;-73
2021/04/23 10:23:11;;;;;;;32.30;7.07;;;18.90;34.60;;;;;;5020938;28;20030;-73
2021/04/23 10:25:37;;;;;;;9.25;3.83;;;19.30;34.70;;;;;;5017463;28;20442;-73
2021/04/23 10:28:08;;;;;;;10.80;4.50;;;19.10;32.90;;;;;;5025039;28;20042;-73
2021/04/23 10:30:36;;;;;;;11.35;4.43;;;19.40;35.50;;;;;;5021897;28;20071;-73
2021/04/23 10:33:05;;;;;;;12.27;4.38;;;19.60;34.30;;;;;;5022193;28;20018;-75
2021/04/23 10:35:31;;;;;;;11.82;4.25;;;19.60;32.70;;;;;;5016725;28;20029;-73
2021/04/23 10:38:07;;;;;;;16.60;4.93;;;19.50;32.70;;;;;;5019694;28;20026;-73
2021/04/23 10:40:33;;;;;;;12.45;4.88;;;19.60;34.80;;;;;;5025141;28;20028;-73
2021/04/23 10:43:04;;;;;;;11.85;4.13;;;20.00;32.40;;;;;;5012516;28;20077;-73
2021/04/23 10:45:59;;;;;;;12.73;4.13;;;19.70;31.30;;;;;;5025114;28;20438;-73
2021/04/23 10:48:27;;;;;;;10.50;3.42;;;19.00;32.80;;;;;;5010850;28;20540;-73
2021/04/23 10:50:57;;;;;;;11.70;4.05;;;19.40;32.70;;;;;;5023437;28;20104;-73
2021/04/23 10:53:25;;;;;;;11.13;4.05;;;19.80;34.50;;;;;;5025788;28;20112;-73
2021/04/23 10:56:06;;;;;;;10.10;4.70;;;19.80;31.80;;;;;;5013885;28;20034;-73
2021/04/23 10:58:32;;;;;;;9.90;4.43;;;19.90;31.30;;;;;;5015192;28;20033;-73
2021/04/23 11:01:12;;;;;;;11.13;4.00;;;19.60;32.50;;;;;;5018064;28;20622;-73
2021/04/23 11:03:38;;;;;;;10.73;4.70;;;19.40;32.90;;;;;;5041277;28;20036;-73
2021/04/23 11:06:27;;;;;;;11.60;4.43;;;19.30;34.10;;;;;;5015446;28;20402;-73
2021/04/23 11:09:21;;;;;;;14.02;4.78;;;19.80;33.30;;;;;;5022729;28;20025;-73
2021/04/23 11:12:08;;;;;;;11.15;5.07;;;19.90;34.30;;;;;;5010891;28;20366;-72
2021/04/23 11:14:38;;;;;;;12.90;4.30;;;20.40;32.10;;;;;;5020055;28;20021;-73
2021/04/23 11:17:19;;;;;;;13.57;4.40;;;20.60;34.20;;;;;;5028754;28;20017;-73
2021/04/23 11:19:48;;;;;;;9.50;4.05;;;20.70;32.20;;;;;;5020869;28;20025;-73
2021/04/23 11:22:21;;;;;;;25.55;5.68;;;20.60;31.80;;;;;;5025196;28;20500;-73
2021/04/23 11:25:00;;;;;;;13.13;4.57;;;20.40;31.60;;;;;;5026712;28;20030;-73
2021/04/23 11:27:26;;;;;;;9.73;3.95;;;19.60;32.60;;;;;;5008762;28;20021;-73
2021/04/23 11:29:52;;;;;;;10.90;3.83;;;19.50;35.00;;;;;;5025442;28;20026;-73
2021/04/23 11:32:33;;;;;;;8.65;3.92;;;20.30;35.10;;;;;;5001363;28;20029;-73
2021/04/23 11:35:08;;;;;;;11.18;4.05;;;21.00;32.80;;;;;;5024348;28;20473;-73
2021/04/23 11:37:42;;;;;;;14.25;4.70;;;20.60;32.50;;;;;;5016247;28;20089;-73
2021/04/23 11:40:17;;;;;;;12.13;3.70;;;19.90;32.50;;;;;;5025806;28;20036;-73
2021/04/23 11:42:53;;;;;;;10.18;3.83;;;20.30;33.90;;;;;;5020539;28;20120;-73
2021/04/23 11:45:22;;;;;;;12.68;4.35;;;20.20;33.50;;;;;;5020876;28;20086;-73
2021/04/23 11:47:53;;;;;;;14.05;3.78;;;20.00;32.20;;;;;;5016379;28;20558;-72
2021/04/23 11:50:26;;;;;;;12.43;3.90;;;20.60;33.10;;;;;;5018126;28;20026;-73
2021/04/23 11:52:54;;;;;;;12.27;4.30;;;20.50;33.00;;;;;;5023384;28;20033;-73
2021/04/23 11:55:29;;;;;;;11.68;4.05;;;20.60;32.20;;;;;;5016629;28;20021;-73
2021/04/23 11:58:02;;;;;;;10.10;4.05;;;20.50;31.70;;;;;;5018290;28;20560;-73
2021/04/23 12:00:31;;;;;;;13.68;4.18;;;20.60;32.60;;;;;;5025728;28;20040;-72
2021/04/23 12:03:07;;;;;;;10.77;3.78;;;20.70;32.80;;;;;;5020830;28;20026;-72
2021/04/23 12:05:39;;;;;;;15.15;3.85;;;20.70;31.60;;;;;;5019744;28;20521;-72
2021/04/23 12:08:05;;;;;;;5.63;2.47;;;20.70;32.30;;;;;;5009315;28;20068;-73
2021/04/23 12:10:33;;;;;;;10.45;3.40;;;20.70;29.30;;;;;;5028047;28;20197;-73
2021/04/23 12:12:59;;;;;;;11.27;3.58;;;20.40;29.70;;;;;;5002941;28;20030;-73
2021/04/23 12:15:27;;;;;;;6.18;3.40;;;19.60;32.00;;;;;;5017340;28;20077;-73
2021/04/23 12:17:53;;;;;;;10.68;3.15;;;19.00;30.50;;;;;;5023038;28;20025;-73
2021/04/23 12:20:36;;;;;;;6.53;3.10;;;18.40;32.40;;;;;;5022535;28;20079;-73
2021/04/23 12:23:03;;;;;;;12.38;4.25;;;18.70;30.90;;;;;;5017841;28;20393;-73
2021/04/23 12:25:36;;;;;;;9.15;4.22;;;18.80;32.90;;;;;;5022700;28;20034;-73
2021/04/23 12:28:22;;;;;;;10.05;4.28;;;18.90;34.20;;;;;;5019287;28;20025;-73
2021/04/23 12:31:20;;;;;;;15.50;4.53;;;19.00;34.40;;;;;;5023499;28;20032;-73
2021/04/23 12:33:57;;;;;;;10.98;4.18;;;19.10;35.60;;;;;;5011288;28;20041;-73
2021/04/23 12:36:24;;;;;;;9.05;4.47;;;19.20;34.80;;;;;;5006992;28;20022;-73
2021/04/23 12:39:01;;;;;;;9.40;4.22;;;19.30;34.30;;;;;;5023112;28;20034;-73
2021/04/23 12:41:30;;;;;;;13.52;4.60;;;19.00;34.20;;;;;;5020763;28;20033;-73
2021/04/23 12:43:58;;;;;;;7.38;4.38;;;18.50;33.30;;;;;;5018380;28;20381;-73
2021/04/23 12:46:28;;;;;;;10.88;5.05;;;18.30;34.80;;;;;;5032078;28;20370;-73